Time;durP1;ratioP1;P1;durP2;ratioP2;P2;SDS_P1;SDS_P2;PMS_P1;PMS_P2;Temp;Humidity;BMP_temperature;BMP_pressure;BME280_temperature;BME280_humidity;BME280_pressure;Samples;Min_cycle;Max_cycle;Signal;HPM_P1;HPM_P2
2023/05/18 04:01:52;;;;;;;2.37;2.17;;;6.50;97.30;;;;;;5451368;22;20499;-85
2023/05/18 04:04:22;;;;;;;11.60;2.40;;;6.60;97.30;;;;;;4992773;28;20779;-85
2023/05/18 04:06:50;;;;;;;5.83;2.93;;;6.60;97.30;;;;;;4992102;28;20236;-85
2023/05/18 04:09:20;;;;;;;2.17;1.93;;;6.60;97.30;;;;;;4989609;28;20437;-85
2023/05/18 04:11:46;;;;;;;1.80;1.70;;;6.60;97.30;;;;;;4985522;28;20455;-85
2023/05/18 04:14:12;;;;;;;2.03;1.90;;;6.60;97.30;;;;;;4990152;28;20432;-85
2023/05/18 04:16:38;;;;;;;1.47;1.37;;;6.60;97.30;;;;;;4992423;28;20189;-85
2023/05/18 04:19:05;;;;;;;2.50;1.83;;;6.60;97.30;;;;;;5008731;28;20461;-85
2023/05/18 04:21:34;;;;;;;2.40;2.03;;;6.60;97.30;;;;;;4991631;28;20200;-85
2023/05/18 04:24:03;;;;;;;2.90;2.70;;;6.60;97.30;;;;;;5002006;28;20953;-85
2023/05/18 04:26:30;;;;;;;1.30;1.23;;;6.60;97.30;;;;;;4992241;28;20435;-85
2023/05/18 04:28:58;;;;;;;1.27;1.17;;;6.60;97.30;;;;;;4989954;28;20428;-84
2023/05/18 04:31:28;;;;;;;2.20;2.00;;;6.60;97.30;;;;;;4983693;28;20451;-85
2023/05/18 04:33:54;;;;;;;1.43;1.33;;;6.60;97.30;;;;;;4984560;28;20811;-85
2023/05/18 04:36:20;;;;;;;1.67;1.57;;;6.60;97.30;;;;;;5001881;28;20799;-85
2023/05/18 04:38:46;;;;;;;1.57;1.47;;;6.70;97.30;;;;;;4987698;28;20474;-81
2023/05/18 04:41:11;;;;;;;1.23;1.20;;;6.70;97.30;;;;;;4990702;28;20206;-81
2023/05/18 04:43:37;;;;;;;1.37;1.27;;;6.70;97.30;;;;;;4987812;28;20513;-83
2023/05/18 04:46:05;;;;;;;1.67;1.57;;;6.80;97.30;;;;;;5002969;28;20197;-81
2023/05/18 04:48:32;;;;;;;1.40;1.30;;;6.80;97.30;;;;;;4990134;28;20214;-84
2023/05/18 04:50:57;;;;;;;1.50;1.50;;;6.80;97.30;;;;;;4984617;28;20443;-82
2023/05/18 04:53:23;;;;;;;1.80;1.70;;;6.90;97.30;;;;;;4977979;28;20425;-82
2023/05/18 04:55:49;;;;;;;9.97;1.20;;;6.90;97.30;;;;;;5001499;28;20177;-81
2023/05/18 04:58:15;;;;;;;1.43;1.33;;;6.90;97.30;;;;;;4999101;28;20181;-81
2023/05/18 05:00:41;;;;;;;1.50;1.40;;;6.90;97.30;;;;;;4989558;28;21105;-82
2023/05/18 05:03:06;;;;;;;2.63;2.43;;;7.00;97.30;;;;;;4996260;28;20419;-81
2023/05/18 05:05:33;;;;;;;2.00;1.90;;;7.10;97.30;;;;;;4997311;28;20235;-83
2023/05/18 05:07:58;;;;;;;6.37;2.73;;;7.10;97.30;;;;;;4985293;28;20193;-83
2023/05/18 05:10:24;;;;;;;1.60;1.50;;;7.20;97.30;;;;;;5024769;28;20428;-84
2023/05/18 05:12:50;;;;;;;3.27;2.70;;;7.30;97.30;;;;;;5009999;28;20199;-85
2023/05/18 05:15:16;;;;;;;3.43;2.03;;;7.40;97.30;;;;;;4993733;28;20234;-86
2023/05/18 05:17:42;;;;;;;2.50;1.93;;;7.50;97.30;;;;;;4973083;28;20440;-86
2023/05/18 05:20:08;;;;;;;2.03;1.13;;;7.60;97.30;;;;;;4996824;28;20455;-85
2023/05/18 05:22:33;;;;;;;2.97;1.20;;;7.60;97.30;;;;;;4994430;28;20193;-85
2023/05/18 05:24:59;;;;;;;8.20;1.50;;;7.70;97.30;;;;;;5015208;28;20431;-85
2023/05/18 05:27:25;;;;;;;1.80;1.70;;;7.80;97.30;;;;;;4997621;28;20180;-85
2023/05/18 05:29:50;;;;;;;1.40;1.37;;;7.80;97.30;;;;;;4987877;28;20561;-85
2023/05/18 05:32:16;;;;;;;1.20;1.10;;;7.80;97.30;;;;;;5015330;28;20594;-85
2023/05/18 05:34:46;;;;;;;2.93;1.37;;;7.90;97.30;;;;;;4989503;28;20189;-84
2023/05/18 05:37:13;;;;;;;2.47;2.20;;;7.90;97.30;;;;;;4997652;28;20259;-85
2023/05/18 05:39:38;;;;;;;1.93;1.83;;;7.90;97.30;;;;;;4996404;28;20460;-84
2023/05/18 05:42:05;;;;;;;4.10;3.03;;;8.00;97.30;;;;;;4997543;28;20931;-85
2023/05/18 05:44:30;;;;;;;1.00;0.90;;;8.00;97.30;;;;;;5013574;28;20173;-85
2023/05/18 05:46:56;;;;;;;1.73;1.63;;;8.00;97.30;;;;;;4979611;28;20412;-84
2023/05/18 05:49:22;;;;;;;3.80;2.27;;;8.10;97.30;;;;;;4998178;28;20199;-84
2023/05/18 05:51:47;;;;;;;2.10;1.53;;;8.20;97.30;;;;;;4994121;28;20209;-84
2023/05/18 05:54:13;;;;;;;6.00;2.53;;;8.30;97.30;;;;;;4990142;28;20201;-84
2023/05/18 05:56:39;;;;;;;4.53;1.50;;;8.40;97.30;;;;;;4998477;28;20181;-85
2023/05/18 05:59:05;;;;;;;1.33;1.23;;;8.50;97.30;;;;;;4995653;28;20778;-85
2023/05/18 06:01:31;;;;;;;1.50;1.40;;;8.60;97.30;;;;;;4994693;28;20224;-85
2023/05/18 06:03:57;;;;;;;2.70;1.70;;;8.60;97.30;;;;;;4995515;28;20549;-85
2023/05/18 06:06:22;;;;;;;1.20;1.10;;;8.80;97.30;;;;;;4995622;28;20411;-85
2023/05/18 06:08:48;;;;;;;1.50;1.40;;;8.80;97.30;;;;;;4997453;28;20540;-84
2023/05/18 06:11:14;;;;;;;1.67;1.57;;;8.90;97.30;;;;;;4997573;28;20852;-86
2023/05/18 06:13:39;;;;;;;2.47;2.30;;;9.00;97.30;;;;;;4988174;28;20728;-85
2023/05/18 06:16:05;;;;;;;9.13;1.53;;;9.10;97.30;;;;;;4996950;28;20176;-85
2023/05/18 06:18:30;;;;;;;1.53;1.43;;;9.10;97.30;;;;;;5016504;28;20192;-86
2023/05/18 06:20:56;;;;;;;2.30;1.70;;;9.30;97.30;;;;;;4997213;28;20197;-85
2023/05/18 06:23:22;;;;;;;1.83;1.73;;;9.40;97.30;;;;;;4998537;28;20173;-84
2023/05/18 06:25:48;;;;;;;1.33;1.23;;;9.40;97.30;;;;;;4998051;28;20173;-86
2023/05/18 06:28:14;;;;;;;3.10;2.50;;;9.50;97.30;;;;;;4986798;28;20419;-85
2023/05/18 06:30:41;;;;;;;1.67;1.57;;;9.60;97.30;;;;;;4995967;28;20452;-86
2023/05/18 06:33:07;;;;;;;7.50;2.00;;;9.70;97.30;;;;;;4977211;28;20245;-88
2023/05/18 06:35:33;;;;;;;8.10;1.47;;;9.80;97.20;;;;;;5001963;28;20575;-85
2023/05/18 06:37:58;;;;;;;1.10;1.00;;;9.80;96.50;;;;;;4996269;28;20432;-86
2023/05/18 06:40:24;;;;;;;1.40;1.30;;;9.90;96.70;;;;;;4988613;28;20449;-85
2023/05/18 06:42:50;;;;;;;2.07;1.93;;;9.90;96.50;;;;;;4986295;28;20809;-85
2023/05/18 06:45:15;;;;;;;1.70;1.60;;;10.00;96.70;;;;;;4996256;28;20667;-86
2023/05/18 06:47:41;;;;;;;10.70;1.67;;;10.10;96.70;;;;;;4995809;28;20416;-86
2023/05/18 06:50:08;;;;;;;1.40;1.30;;;10.10;96.50;;;;;;4986896;28;20179;-86
2023/05/18 06:52:33;;;;;;;2.50;1.73;;;10.20;95.90;;;;;;4985580;28;20491;-86
2023/05/18 06:55:00;;;;;;;3.03;1.90;;;10.30;95.60;;;;;;4968461;28;20436;-86
2023/05/18 06:57:26;;;;;;;3.00;2.53;;;10.30;95.40;;;;;;4966360;28;20178;-86
2023/05/18 06:59:52;;;;;;;1.20;1.20;;;10.40;95.30;;;;;;4973152;28;20994;-86
2023/05/18 07:02:20;;;;;;;1.20;1.10;;;10.50;94.80;;;;;;4968897;28;20738;-86
2023/05/18 07:04:46;;;;;;;1.40;1.30;;;10.60;94.80;;;;;;4969626;28;20814;-86
2023/05/18 07:07:12;;;;;;;12.23;1.90;;;10.70;94.30;;;;;;4968883;28;20476;-84
2023/05/18 07:09:40;;;;;;;1.00;0.90;;;10.80;93.90;;;;;;4969070;28;20737;-86
2023/05/18 07:12:06;;;;;;;2.27;1.73;;;10.90;94.20;;;;;;4971176;28;20197;-86
2023/05/18 07:14:32;;;;;;;39.37;4.83;;;11.00;93.30;;;;;;4968144;28;20426;-86
2023/05/18 07:16:58;;;;;;;1.20;1.10;;;11.10;93.30;;;;;;4972279;28;20417;-86
2023/05/18 07:19:23;;;;;;;21.47;3.77;;;11.20;92.20;;;;;;4971017;28;20198;-85
2023/05/18 07:21:49;;;;;;;1.40;1.30;;;11.30;91.90;;;;;;4971488;28;20212;-83
2023/05/18 07:24:15;;;;;;;16.83;2.20;;;11.30;91.70;;;;;;4978753;28;20224;-83
2023/05/18 07:26:40;;;;;;;6.93;2.60;;;11.40;92.00;;;;;;4973689;28;20178;-81
2023/05/18 07:29:08;;;;;;;7.43;1.63;;;11.50;91.70;;;;;;4987230;28;20194;-84
2023/05/18 07:31:37;;;;;;;1.43;1.40;;;11.60;92.00;;;;;;4992391;28;20206;-84
2023/05/18 07:34:03;;;;;;;1.43;1.33;;;11.70;92.10;;;;;;4993705;28;20425;-85
2023/05/18 07:36:28;;;;;;;1.67;1.43;;;11.80;92.00;;;;;;4994034;28;20531;-84
2023/05/18 07:38:56;;;;;;;2.97;2.20;;;12.00;91.40;;;;;;4992614;28;20274;-84
2023/05/18 07:41:21;;;;;;;4.60;1.60;;;12.10;90.30;;;;;;4975899;28;20301;-85
2023/05/18 07:43:50;;;;;;;1.77;1.70;;;12.10;89.50;;;;;;4979006;28;20488;-82
2023/05/18 07:46:15;;;;;;;2.30;1.57;;;12.20;89.40;;;;;;4983322;28;20177;-83
2023/05/18 07:48:41;;;;;;;17.97;2.10;;;12.20;89.30;;;;;;4974573;28;20852;-85
2023/05/18 07:51:06;;;;;;;1.87;1.87;;;12.30;90.10;;;;;;4975881;28;20600;-85
2023/05/18 07:53:33;;;;;;;1.10;1.00;;;12.40;88.60;;;;;;4979112;28;20220;-85
2023/05/18 07:55:59;;;;;;;1.33;1.10;;;12.50;88.30;;;;;;4982668;28;20285;-84
2023/05/18 07:58:24;;;;;;;1.53;1.40;;;12.60;87.00;;;;;;4986458;28;20902;-79
2023/05/18 08:00:50;;;;;;;1.70;1.63;;;12.70;87.60;;;;;;4983603;28;20237;-82
2023/05/18 08:03:17;;;;;;;2.90;1.37;;;12.70;88.40;;;;;;4980731;28;20193;-83
2023/05/18 08:05:42;;;;;;;1.10;1.00;;;12.90;86.50;;;;;;4978663;28;20663;-81
2023/05/18 08:08:10;;;;;;;9.80;2.80;;;12.90;86.40;;;;;;4977011;28;20428;-85
2023/05/18 08:10:36;;;;;;;6.33;2.97;;;13.00;86.90;;;;;;4982546;28;20268;-83
2023/05/18 08:13:02;;;;;;;2.10;1.90;;;13.10;86.90;;;;;;4992036;28;20455;-85
2023/05/18 08:15:28;;;;;;;7.00;2.03;;;13.20;87.20;;;;;;4986465;28;20432;-84
2023/05/18 08:17:53;;;;;;;1.10;1.00;;;13.30;86.90;;;;;;4984788;28;20182;-85
2023/05/18 08:20:19;;;;;;;19.63;1.83;;;13.50;85.40;;;;;;4982951;28;20218;-81
2023/05/18 08:22:45;;;;;;;2.57;2.43;;;13.50;84.80;;;;;;4987930;28;20202;-83
2023/05/18 08:25:10;;;;;;;4.07;2.43;;;13.50;84.50;;;;;;4980292;28;20625;-84
2023/05/18 08:27:36;;;;;;;0.90;0.80;;;13.60;85.50;;;;;;4985378;28;20527;-84
2023/05/18 08:30:02;;;;;;;2.13;1.60;;;13.70;85.40;;;;;;4973469;28;20205;-83
2023/05/18 08:32:27;;;;;;;3.10;1.57;;;13.80;83.80;;;;;;4973370;28;20221;-82
2023/05/18 08:34:53;;;;;;;3.33;2.40;;;13.80;84.30;;;;;;4982808;28;20186;-82
2023/05/18 08:37:19;;;;;;;13.13;2.00;;;14.00;84.00;;;;;;4979280;28;20189;-83
2023/05/18 08:39:45;;;;;;;6.13;1.63;;;14.00;83.50;;;;;;4978636;28;20727;-81
2023/05/18 08:42:31;;;;;;;1.37;1.30;;;14.10;83.50;;;;;;4972347;28;20586;-83
2023/05/18 08:45:22;;;;;;;9.93;1.37;;;14.20;83.80;;;;;;4980453;28;20415;-83
2023/05/18 08:47:50;;;;;;;1.20;1.20;;;14.20;82.90;;;;;;4973827;28;20441;-82
2023/05/18 08:50:19;;;;;;;2.00;1.90;;;14.10;83.40;;;;;;4977371;28;20437;-83
2023/05/18 08:52:53;;;;;;;1.10;1.00;;;14.00;83.40;;;;;;4976201;28;20503;-79
2023/05/18 08:55:19;;;;;;;1.80;1.70;;;13.90;83.20;;;;;;4975636;28;20440;-83
2023/05/18 08:57:54;;;;;;;1.90;1.77;;;13.90;83.70;;;;;;4956696;28;20432;-83
2023/05/18 09:00:21;;;;;;;2.63;1.77;;;13.90;83.60;;;;;;4993592;28;20640;-84
2023/05/18 09:02:47;;;;;;;2.80;2.40;;;14.00;82.00;;;;;;4971530;28;20552;-82
2023/05/18 09:05:14;;;;;;;1.53;1.50;;;14.10;82.70;;;;;;4982878;28;20483;-83
2023/05/18 09:07:41;;;;;;;1.10;1.07;;;14.20;82.00;;;;;;4975499;28;21002;-83
2023/05/18 09:10:09;;;;;;;0.93;0.83;;;14.30;81.20;;;;;;4977589;28;20491;-83
2023/05/18 09:12:35;;;;;;;2.70;1.00;;;14.20;82.20;;;;;;4975099;28;20460;-82
2023/05/18 09:15:02;;;;;;;2.50;2.30;;;14.10;81.30;;;;;;4979375;28;20450;-82
2023/05/18 09:17:28;;;;;;;1.03;0.93;;;14.00;82.20;;;;;;4979958;28;20183;-84
2023/05/18 09:19:53;;;;;;;2.77;2.03;;;13.90;82.50;;;;;;4980481;28;20543;-83
2023/05/18 09:22:19;;;;;;;1.20;1.10;;;13.90;82.60;;;;;;4982639;28;20289;-83
2023/05/18 09:24:44;;;;;;;1.10;1.10;;;13.90;82.60;;;;;;4986561;28;20177;-83
2023/05/18 09:27:10;;;;;;;1.33;1.23;;;13.90;82.50;;;;;;5000265;28;20182;-83
2023/05/18 09:29:53;;;;;;;2.30;1.10;;;13.90;82.60;;;;;;5017202;28;20289;-82
2023/05/18 09:32:20;;;;;;;2.20;2.00;;;14.00;83.40;;;;;;4986152;28;20447;-83
2023/05/18 09:34:47;;;;;;;1.30;1.20;;;14.20;82.90;;;;;;4993467;28;20503;-83
2023/05/18 09:37:16;;;;;;;1.50;1.40;;;14.30;83.40;;;;;;4986950;28;20427;-83
2023/05/18 09:39:42;;;;;;;1.10;1.00;;;14.60;83.40;;;;;;4992876;28;20470;-83
2023/05/18 09:42:08;;;;;;;1.33;1.23;;;14.80;81.90;;;;;;4993849;28;20817;-83
2023/05/18 09:44:34;;;;;;;2.30;1.67;;;15.00;80.90;;;;;;4995486;28;20177;-82
2023/05/18 09:47:01;;;;;;;4.50;1.23;;;15.10;80.90;;;;;;4995079;28;20209;-82
2023/05/18 09:49:30;;;;;;;1.60;1.50;;;15.10;80.90;;;;;;4982734;28;20454;-83
2023/05/18 09:51:59;;;;;;;1.20;1.10;;;15.10;80.00;;;;;;4983744;28;20754;-82
2023/05/18 09:54:24;;;;;;;2.17;2.00;;;15.10;79.90;;;;;;4977894;28;20420;-83
2023/05/18 09:56:50;;;;;;;1.17;1.10;;;15.10;81.30;;;;;;4982589;28;20420;-79
2023/05/18 09:59:16;;;;;;;2.50;1.23;;;15.30;79.40;;;;;;4979000;28;20202;-82
2023/05/18 10:02:04;;;;;;;1.20;1.10;;;15.30;77.90;;;;;;4974514;28;20228;-82
2023/05/18 10:04:41;;;;;;;1.83;1.73;;;15.50;79.80;;;;;;4982382;28;20193;-82
2023/05/18 10:07:15;;;;;;;1.70;1.60;;;15.60;78.70;;;;;;4980426;28;20921;-81
2023/05/18 10:09:42;;;;;;;1.30;1.20;;;15.60;78.70;;;;;;4973897;28;20426;-81
2023/05/18 10:12:16;;;;;;;1.07;0.97;;;15.70;79.00;;;;;;4984122;28;20492;-81
2023/05/18 10:14:43;;;;;;;1.00;0.90;;;15.80;79.60;;;;;;4978077;28;20424;-81
2023/05/18 10:17:14;;;;;;;3.23;1.43;;;16.10;78.90;;;;;;4985332;28;20431;-83
2023/05/18 10:19:43;;;;;;;1.10;1.00;;;16.30;79.10;;;;;;4979201;28;20552;-85
2023/05/18 10:22:09;;;;;;;1.37;1.27;;;16.40;77.80;;;;;;4992717;28;20582;-83
2023/05/18 10:24:38;;;;;;;1.30;1.20;;;16.30;77.60;;;;;;4982736;28;20428;-83
2023/05/18 10:27:09;;;;;;;4.00;2.23;;;16.40;77.70;;;;;;4984479;28;20424;-84
2023/05/18 10:29:37;;;;;;;3.03;2.63;;;16.40;77.40;;;;;;4985831;28;20989;-82
2023/05/18 10:32:04;;;;;;;1.03;0.93;;;16.40;77.20;;;;;;4978931;28;20459;-85
2023/05/18 10:34:35;;;;;;;3.67;1.10;;;16.50;78.30;;;;;;4979549;28;20431;-81
2023/05/18 10:37:04;;;;;;;1.43;1.23;;;16.50;78.40;;;;;;4979748;28;20849;-85
2023/05/18 10:39:34;;;;;;;1.20;1.10;;;16.40;76.40;;;;;;4976694;28;20543;-84
2023/05/18 10:42:01;;;;;;;1.47;1.37;;;16.30;77.60;;;;;;4978551;28;20877;-85
2023/05/18 10:44:28;;;;;;;0.93;0.83;;;16.10;76.30;;;;;;4979911;28;20426;-85
2023/05/18 10:46:54;;;;;;;1.10;0.90;;;16.00;77.40;;;;;;4978461;28;20487;-85
2023/05/18 10:49:26;;;;;;;3.53;1.00;;;15.90;77.80;;;;;;4976904;28;21141;-86
2023/05/18 10:51:56;;;;;;;1.10;1.00;;;15.60;76.80;;;;;;4979477;28;20441;-85
2023/05/18 10:54:22;;;;;;;0.90;0.80;;;15.40;78.20;;;;;;4983403;28;20425;-85
2023/05/18 10:56:51;;;;;;;1.07;0.97;;;15.30;78.40;;;;;;4977413;28;20428;-85
2023/05/18 10:59:18;;;;;;;1.10;1.00;;;15.30;79.70;;;;;;4977745;28;20472;-81
2023/05/18 11:01:46;;;;;;;1.60;1.50;;;15.60;80.00;;;;;;4979641;28;20469;-83
2023/05/18 11:04:11;;;;;;;6.40;2.13;;;15.70;77.60;;;;;;4982966;28;20419;-86
2023/05/18 11:06:38;;;;;;;0.90;0.90;;;15.80;77.30;;;;;;4980646;28;20425;-84
2023/05/18 11:09:04;;;;;;;4.93;1.37;;;15.90;79.50;;;;;;4974604;28;20189;-86
2023/05/18 11:11:49;;;;;;;1.73;1.20;;;16.20;78.00;;;;;;4979285;28;20523;-85
2023/05/18 11:14:31;;;;;;;2.73;1.27;;;16.40;75.80;;;;;;4975706;28;20432;-85
2023/05/18 11:17:18;;;;;;;1.20;1.10;;;16.30;76.20;;;;;;4977012;28;20417;-85
2023/05/18 11:20:08;;;;;;;1.63;1.53;;;16.50;77.10;;;;;;4974405;28;20848;-82
2023/05/18 11:22:56;;;;;;;1.00;0.90;;;16.50;76.90;;;;;;4973701;28;20429;-85
2023/05/18 11:25:31;;;;;;;1.90;1.37;;;16.80;77.50;;;;;;4976247;28;20475;-83
2023/05/18 11:28:03;;;;;;;1.83;1.60;;;16.80;75.40;;;;;;4976466;28;20424;-84
2023/05/18 11:30:50;;;;;;;1.20;1.10;;;16.90;77.00;;;;;;4976243;28;20851;-83
2023/05/18 11:33:23;;;;;;;1.17;1.07;;;17.10;75.80;;;;;;4977925;28;20948;-86
2023/05/18 11:36:11;;;;;;;1.10;1.00;;;17.20;74.60;;;;;;4976516;28;20429;-85
2023/05/18 11:38:52;;;;;;;1.20;1.10;;;17.40;75.50;;;;;;4974929;28;20476;-85
2023/05/18 11:41:40;;;;;;;4.93;1.43;;;17.70;74.50;;;;;;4967393;28;20527;-85
2023/05/18 11:44:22;;;;;;;1.50;1.40;;;17.70;74.00;;;;;;4975068;28;20425;-85
2023/05/18 11:47:03;;;;;;;0.90;0.80;;;17.70;73.50;;;;;;4971126;28;20410;-82
2023/05/18 11:49:42;;;;;;;3.33;1.30;;;17.50;73.70;;;;;;4975131;28;20411;-85
2023/05/18 11:52:08;;;;;;;9.43;1.63;;;17.40;74.30;;;;;;4978069;28;20445;-81
2023/05/18 11:54:42;;;;;;;1.10;1.00;;;17.30;74.40;;;;;;4984458;28;20435;-85
2023/05/18 11:57:09;;;;;;;3.50;1.30;;;17.10;74.50;;;;;;4990071;28;20178;-86
2023/05/18 11:59:40;;;;;;;1.00;0.90;;;17.00;74.30;;;;;;4983307;28;20500;-83
2023/05/18 12:02:10;;;;;;;1.00;0.90;;;17.00;75.30;;;;;;4979959;28;20469;-85
2023/05/18 12:04:45;;;;;;;3.13;2.40;;;17.10;75.80;;;;;;4976395;28;20764;-83
2023/05/18 12:07:11;;;;;;;1.13;1.07;;;17.20;75.80;;;;;;4981535;28;20421;-83
2023/05/18 12:09:41;;;;;;;1.60;1.30;;;17.20;74.40;;;;;;4979657;28;20436;-81
2023/05/18 12:12:09;;;;;;;11.20;1.67;;;17.10;75.40;;;;;;4980316;28;20947;-81
2023/05/18 12:14:40;;;;;;;8.63;1.27;;;17.00;74.80;;;;;;4979871;28;20776;-80
2023/05/18 12:17:06;;;;;;;1.33;1.20;;;16.90;74.90;;;;;;4983868;28;20409;-83
2023/05/18 12:19:37;;;;;;;1.80;1.20;;;17.00;75.90;;;;;;4984097;28;20592;-83
2023/05/18 12:22:03;;;;;;;4.23;1.40;;;17.10;76.30;;;;;;4982965;28;20445;-81
2023/05/18 12:24:29;;;;;;;5.27;1.30;;;17.20;74.90;;;;;;4982326;28;20516;-81
2023/05/18 12:26:55;;;;;;;0.93;0.90;;;17.30;74.80;;;;;;4980967;28;20457;-83
2023/05/18 12:29:21;;;;;;;1.40;1.30;;;17.30;73.20;;;;;;4996994;28;20430;-83
2023/05/18 12:31:47;;;;;;;1.00;0.90;;;17.20;73.30;;;;;;4999066;28;20205;-83
2023/05/18 12:34:16;;;;;;;1.30;1.20;;;17.20;74.60;;;;;;4991202;28;20466;-83
2023/05/18 12:36:52;;;;;;;2.40;1.93;;;17.40;76.50;;;;;;4996428;28;20945;-84
2023/05/18 12:39:18;;;;;;;7.40;0.90;;;17.60;74.90;;;;;;4997568;28;20459;-83
2023/05/18 12:41:44;;;;;;;1.00;0.90;;;17.60;73.40;;;;;;4999250;28;20490;-83
2023/05/18 12:44:09;;;;;;;0.97;0.87;;;17.50;74.40;;;;;;4990094;28;20195;-83
2023/05/18 12:46:35;;;;;;;1.00;0.90;;;17.60;74.10;;;;;;4998838;28;20750;-85
2023/05/18 12:49:02;;;;;;;1.77;1.40;;;17.60;75.30;;;;;;4997365;28;20235;-83
2023/05/18 12:51:34;;;;;;;1.03;0.93;;;17.70;74.60;;;;;;4999658;28;20204;-83
2023/05/18 12:54:03;;;;;;;5.77;1.87;;;17.70;74.20;;;;;;4997273;28;20978;-80
2023/05/18 12:56:50;;;;;;;1.87;1.30;;;17.60;73.90;;;;;;4973909;28;20494;-81
2023/05/18 12:59:20;;;;;;;1.53;1.30;;;17.50;74.40;;;;;;4974313;28;20557;-82
2023/05/18 13:01:46;;;;;;;1.27;1.27;;;17.40;73.30;;;;;;4991196;28;20479;-83
2023/05/18 13:04:12;;;;;;;7.33;4.33;;;17.30;74.00;;;;;;5003336;28;20416;-83
2023/05/18 13:06:38;;;;;;;1.77;1.67;;;17.30;73.50;;;;;;5005781;28;20240;-84
2023/05/18 13:09:10;;;;;;;1.20;1.10;;;17.40;73.10;;;;;;4991797;28;20420;-82
2023/05/18 13:11:35;;;;;;;3.53;1.67;;;17.60;74.20;;;;;;4984614;28;20527;-84
2023/05/18 13:14:03;;;;;;;12.50;1.83;;;17.80;75.70;;;;;;4993503;28;20465;-83
2023/05/18 13:16:29;;;;;;;2.40;1.40;;;17.90;75.30;;;;;;5015796;28;20174;-83
2023/05/18 13:18:58;;;;;;;7.60;2.10;;;17.80;74.00;;;;;;4986939;28;20540;-83
2023/05/18 13:21:24;;;;;;;2.00;1.33;;;17.90;73.70;;;;;;4982424;28;20441;-82
2023/05/18 13:23:49;;;;;;;1.73;1.63;;;18.10;73.30;;;;;;4998348;28;20455;-84
2023/05/18 13:26:17;;;;;;;1.10;1.00;;;18.40;73.50;;;;;;5003604;28;20434;-83
2023/05/18 13:28:43;;;;;;;1.20;1.10;;;18.80;74.40;;;;;;4988852;28;20178;-84
2023/05/18 13:31:09;;;;;;;1.10;1.00;;;19.10;71.80;;;;;;5001234;28;20472;-85
2023/05/18 13:33:42;;;;;;;1.27;1.17;;;19.30;71.70;;;;;;4997449;28;20430;-83
2023/05/18 13:36:08;;;;;;;1.30;1.20;;;19.30;70.50;;;;;;4987953;28;20174;-83
2023/05/18 13:38:36;;;;;;;1.30;1.20;;;19.00;71.20;;;;;;4994252;28;20431;-83
2023/05/18 13:41:04;;;;;;;4.60;2.07;;;19.10;71.80;;;;;;4985805;28;20491;-81
2023/05/18 13:43:31;;;;;;;1.87;1.57;;;19.20;71.40;;;;;;4985823;28;20417;-83
2023/05/18 13:45:57;;;;;;;5.03;1.50;;;19.20;72.50;;;;;;4991722;28;20899;-85
2023/05/18 13:48:23;;;;;;;1.83;1.47;;;19.00;71.40;;;;;;4995954;28;20480;-84
2023/05/18 13:50:49;;;;;;;3.13;1.83;;;18.80;71.70;;;;;;5008592;28;20205;-83
2023/05/18 13:53:15;;;;;;;1.07;0.90;;;18.50;71.70;;;;;;5001198;28;20463;-83
2023/05/18 13:55:40;;;;;;;1.30;1.20;;;18.40;73.30;;;;;;5000956;28;20268;-83
2023/05/18 13:58:06;;;;;;;1.43;1.10;;;18.70;73.20;;;;;;5000546;28;20196;-83
2023/05/18 14:00:32;;;;;;;2.97;1.30;;;18.90;72.10;;;;;;4995965;28;20209;-82
2023/05/18 14:02:57;;;;;;;1.20;1.10;;;18.90;71.70;;;;;;4980227;28;20285;-83
2023/05/18 14:05:24;;;;;;;6.37;1.30;;;18.90;72.10;;;;;;4984478;28;20199;-82
2023/05/18 14:07:52;;;;;;;12.20;1.30;;;18.70;72.40;;;;;;4993177;28;20236;-84
2023/05/18 14:10:19;;;;;;;1.97;1.87;;;18.70;72.80;;;;;;5001107;28;20506;-83
2023/05/18 14:12:44;;;;;;;1.97;1.17;;;18.60;72.00;;;;;;5002274;28;20440;-83
2023/05/18 14:15:14;;;;;;;6.77;2.83;;;18.60;72.30;;;;;;5001890;28;20936;-83
2023/05/18 14:17:41;;;;;;;1.10;1.00;;;18.80;72.50;;;;;;5002081;28;20181;-83
2023/05/18 14:20:07;;;;;;;1.47;1.20;;;18.70;71.80;;;;;;5018480;28;20527;-83
2023/05/18 14:22:33;;;;;;;1.30;1.20;;;18.50;72.10;;;;;;5004665;28;20435;-83
2023/05/18 14:24:59;;;;;;;3.00;1.17;;;18.20;72.60;;;;;;4994134;28;20420;-82
2023/05/18 14:27:25;;;;;;;1.33;1.20;;;18.00;73.50;;;;;;5002277;28;20426;-83
2023/05/18 14:29:51;;;;;;;3.13;1.37;;;17.90;73.90;;;;;;4999738;28;20518;-83
2023/05/18 14:32:19;;;;;;;1.97;1.43;;;17.90;72.60;;;;;;4992777;28;20457;-83
2023/05/18 14:34:50;;;;;;;9.73;1.63;;;17.90;73.30;;;;;;4985409;28;20228;-83
2023/05/18 14:37:16;;;;;;;2.10;1.47;;;18.00;72.30;;;;;;4998020;28;20471;-82
2023/05/18 14:39:42;;;;;;;1.60;1.50;;;18.10;72.90;;;;;;4995835;28;20459;-83
2023/05/18 14:42:08;;;;;;;1.20;1.10;;;18.30;73.50;;;;;;4999234;28;20444;-83
2023/05/18 14:44:33;;;;;;;1.73;1.50;;;18.50;73.00;;;;;;4993062;28;20176;-83
2023/05/18 14:46:59;;;;;;;2.40;2.03;;;18.40;73.30;;;;;;4999087;28;20173;-84
2023/05/18 14:49:24;;;;;;;1.00;0.90;;;18.20;74.60;;;;;;4997842;28;20896;-84
2023/05/18 14:51:50;;;;;;;1.30;1.30;;;18.10;73.30;;;;;;4999078;28;20197;-83
2023/05/18 14:54:17;;;;;;;1.40;1.23;;;17.90;74.50;;;;;;4998130;28;20889;-83
2023/05/18 14:56:43;;;;;;;1.73;1.50;;;17.80;74.90;;;;;;4997652;28;20166;-83
2023/05/18 14:59:09;;;;;;;1.83;1.67;;;18.00;75.50;;;;;;4995892;28;20563;-83
2023/05/18 15:01:34;;;;;;;3.20;1.30;;;18.20;74.20;;;;;;4997008;28;20225;-83
2023/05/18 15:04:00;;;;;;;0.90;0.90;;;18.40;73.10;;;;;;4997397;28;20528;-83
2023/05/18 15:06:26;;;;;;;3.07;1.10;;;18.50;73.30;;;;;;4997782;28;20220;-83
2023/05/18 15:08:51;;;;;;;1.10;1.00;;;18.80;73.90;;;;;;4999121;28;20790;-83
2023/05/18 15:11:18;;;;;;;2.43;1.30;;;18.90;73.70;;;;;;4995461;28;20463;-83
2023/05/18 15:13:44;;;;;;;1.20;1.10;;;19.20;73.20;;;;;;4994222;28;20684;-84
2023/05/18 15:16:10;;;;;;;3.97;1.43;;;19.60;72.70;;;;;;4998003;28;20424;-84
2023/05/18 15:18:36;;;;;;;1.80;1.70;;;19.90;71.30;;;;;;4986457;28;20667;-83
2023/05/18 15:21:01;;;;;;;1.43;1.27;;;19.90;70.50;;;;;;4995342;28;20440;-81
2023/05/18 15:23:27;;;;;;;1.27;1.17;;;19.70;70.40;;;;;;4998790;28;20181;-83
2023/05/18 15:25:52;;;;;;;1.30;1.20;;;19.50;70.80;;;;;;4991923;28;20178;-81
2023/05/18 15:28:18;;;;;;;12.73;1.33;;;19.40;71.10;;;;;;4997658;28;20706;-82
2023/05/18 15:30:43;;;;;;;2.53;1.50;;;19.00;71.10;;;;;;4998376;28;20208;-81
2023/05/18 15:33:09;;;;;;;5.10;2.10;;;18.70;71.50;;;;;;4990913;28;20189;-82
2023/05/18 15:35:37;;;;;;;1.47;1.40;;;18.30;72.30;;;;;;4995717;28;20189;-81
2023/05/18 15:38:02;;;;;;;4.30;1.67;;;18.50;73.30;;;;;;4998865;28;20447;-81
2023/05/18 15:40:28;;;;;;;1.97;1.90;;;18.90;72.50;;;;;;4995847;28;20872;-79
2023/05/18 15:42:53;;;;;;;12.97;1.83;;;19.20;72.00;;;;;;4999273;28;20658;-81
2023/05/18 15:45:19;;;;;;;9.40;1.40;;;19.30;70.90;;;;;;4999088;28;20459;-80
2023/05/18 15:47:45;;;;;;;2.50;1.57;;;19.00;70.60;;;;;;4987582;28;20238;-80
2023/05/18 15:50:12;;;;;;;1.30;1.20;;;18.70;71.70;;;;;;4996968;28;20178;-81
2023/05/18 15:52:37;;;;;;;1.70;1.60;;;18.40;72.20;;;;;;4996790;28;20286;-80
2023/05/18 15:55:03;;;;;;;1.13;1.00;;;18.30;72.80;;;;;;5003398;28;20420;-82
2023/05/18 15:57:29;;;;;;;1.50;1.10;;;18.00;73.00;;;;;;5006334;28;20201;-81
2023/05/18 15:59:55;;;;;;;1.63;1.53;;;17.90;73.40;;;;;;5004000;28;20444;-83
2023/05/18 16:02:20;;;;;;;1.03;0.93;;;17.60;72.80;;;;;;5006316;28;20244;-81
2023/05/18 16:04:46;;;;;;;1.37;1.27;;;17.40;73.80;;;;;;5000214;28;20635;-82
2023/05/18 16:07:13;;;;;;;2.13;1.77;;;17.20;73.90;;;;;;4995437;28;20741;-82
2023/05/18 16:09:39;;;;;;;4.73;1.43;;;17.10;74.30;;;;;;4989194;28;20173;-82
2023/05/18 16:12:05;;;;;;;2.03;1.90;;;17.30;74.70;;;;;;4996454;28;20454;-81
2023/05/18 16:14:30;;;;;;;1.37;1.27;;;17.50;74.70;;;;;;4980193;28;20188;-81
2023/05/18 16:16:56;;;;;;;2.10;1.67;;;17.80;74.80;;;;;;4996572;28;20427;-81
2023/05/18 16:19:21;;;;;;;2.60;2.40;;;17.80;73.50;;;;;;4997034;28;20212;-82
2023/05/18 16:21:47;;;;;;;1.53;1.40;;;17.90;73.70;;;;;;4996824;23;20239;-81
2023/05/18 16:24:13;;;;;;;1.27;1.20;;;17.90;73.70;;;;;;4974779;28;20228;-82
2023/05/18 16:26:38;;;;;;;6.83;2.23;;;17.70;74.10;;;;;;4976667;28;20170;-81
2023/05/18 16:29:04;;;;;;;1.73;1.60;;;17.50;73.80;;;;;;4974400;28;20178;-81
2023/05/18 16:31:30;;;;;;;2.53;2.20;;;17.50;74.40;;;;;;4974511;28;20201;-81
2023/05/18 16:33:55;;;;;;;2.03;1.40;;;17.80;74.60;;;;;;4966672;28;20177;-81
2023/05/18 16:36:23;;;;;;;1.27;1.17;;;18.10;74.10;;;;;;4970679;28;20182;-82
2023/05/18 16:38:49;;;;;;;6.63;1.43;;;18.30;72.60;;;;;;4974281;28;20656;-81
2023/05/18 16:41:15;;;;;;;1.30;1.20;;;18.30;72.30;;;;;;4973490;28;20812;-82
2023/05/18 16:43:42;;;;;;;2.27;1.80;;;18.30;72.60;;;;;;4974306;28;20421;-81
2023/05/18 16:46:08;;;;;;;1.50;1.40;;;18.00;73.10;;;;;;4973865;28;20417;-79
2023/05/18 16:48:34;;;;;;;1.27;1.27;;;17.70;73.20;;;;;;4974128;28;20460;-82
2023/05/18 16:50:59;;;;;;;1.20;1.10;;;17.60;73.70;;;;;;4972963;28;20530;-82